sensor_id;sensor_type;location;lat;lon;timestamp;P1;durP1;ratioP1;P2;durP2;ratioP2
18804;SDS011;9530;48.930;9.526;2022-08-27T00:00:12;11.77;;;8.77;;
18804;SDS011;9530;48.930;9.526;2022-08-27T00:02:42;11.23;;;9.10;;
18804;SDS011;9530;48.930;9.526;2022-08-27T00:05:09;16.10;;;8.57;;
18804;SDS011;9530;48.930;9.526;2022-08-27T00:07:37;14.20;;;9.37;;
18804;SDS011;9530;48.930;9.526;2022-08-27T00:10:05;12.67;;;9.57;;
18804;SDS011;9530;48.930;9.526;2022-08-27T00:12:34;11.93;;;9.33;;
18804;SDS011;9530;48.930;9.526;2022-08-27T00:15:02;13.40;;;10.40;;
18804;SDS011;9530;48.930;9.526;2022-08-27T00:17:29;11.87;;;10.17;;
18804;SDS011;9530;48.930;9.526;2022-08-27T00:19:56;13.30;;;9.97;;
18804;SDS011;9530;48.930;9.526;2022-08-27T00:22:23;13.20;;;9.43;;
18804;SDS011;9530;48.930;9.526;2022-08-27T00:24:49;12.73;;;10.00;;
18804;SDS011;9530;48.930;9.526;2022-08-27T00:27:16;13.60;;;9.97;;
18804;SDS011;9530;48.930;9.526;2022-08-27T00:29:44;11.90;;;9.90;;
18804;SDS011;9530;48.930;9.526;2022-08-27T00:32:12;14.00;;;10.20;;
18804;SDS011;9530;48.930;9.526;2022-08-27T00:34:38;16.87;;;11.07;;
18804;SDS011;9530;48.930;9.526;2022-08-27T00:37:05;13.83;;;11.10;;
18804;SDS011;9530;48.930;9.526;2022-08-27T00:39:33;15.70;;;10.63;;
18804;SDS011;9530;48.930;9.526;2022-08-27T00:42:00;14.53;;;10.60;;
18804;SDS011;9530;48.930;9.526;2022-08-27T00:44:27;15.40;;;11.30;;
18804;SDS011;9530;48.930;9.526;2022-08-27T00:47:00;14.00;;;11.40;;
18804;SDS011;9530;48.930;9.526;2022-08-27T00:49:31;13.97;;;11.23;;
18804;SDS011;9530;48.930;9.526;2022-08-27T00:52:03;16.20;;;11.27;;
18804;SDS011;9530;48.930;9.526;2022-08-27T00:54:32;14.43;;;11.37;;
18804;SDS011;9530;48.930;9.526;2022-08-27T00:56:59;13.30;;;11.33;;
18804;SDS011;9530;48.930;9.526;2022-08-27T00:59:28;13.53;;;11.10;;
18804;SDS011;9530;48.930;9.526;2022-08-27T01:01:58;15.13;;;11.77;;
18804;SDS011;9530;48.930;9.526;2022-08-27T01:04:43;17.87;;;11.60;;
18804;SDS011;9530;48.930;9.526;2022-08-27T01:07:11;17.27;;;12.30;;
18804;SDS011;9530;48.930;9.526;2022-08-27T01:09:39;14.33;;;12.07;;
18804;SDS011;9530;48.930;9.526;2022-08-27T01:12:08;16.63;;;11.87;;
18804;SDS011;9530;48.930;9.526;2022-08-27T01:14:35;17.63;;;12.53;;
18804;SDS011;9530;48.930;9.526;2022-08-27T01:17:05;15.50;;;11.93;;
18804;SDS011;9530;48.930;9.526;2022-08-27T01:19:35;17.87;;;12.30;;
18804;SDS011;9530;48.930;9.526;2022-08-27T01:22:08;17.63;;;12.17;;
18804;SDS011;9530;48.930;9.526;2022-08-27T01:24:41;13.97;;;11.80;;
18804;SDS011;9530;48.930;9.526;2022-08-27T01:27:11;15.67;;;12.63;;
18804;SDS011;9530;48.930;9.526;2022-08-27T01:29:42;28.53;;;13.17;;
18804;SDS011;9530;48.930;9.526;2022-08-27T01:32:10;16.03;;;12.63;;
18804;SDS011;9530;48.930;9.526;2022-08-27T01:34:40;18.63;;;12.97;;
18804;SDS011;9530;48.930;9.526;2022-08-27T01:37:06;18.37;;;12.20;;
18804;SDS011;9530;48.930;9.526;2022-08-27T01:39:34;17.20;;;13.27;;
18804;SDS011;9530;48.930;9.526;2022-08-27T01:42:06;19.70;;;14.17;;
18804;SDS011;9530;48.930;9.526;2022-08-27T01:44:42;17.37;;;13.97;;
18804;SDS011;9530;48.930;9.526;2022-08-27T01:47:11;19.80;;;14.27;;
18804;SDS011;9530;48.930;9.526;2022-08-27T01:49:38;20.43;;;13.50;;
18804;SDS011;9530;48.930;9.526;2022-08-27T01:52:04;18.93;;;14.60;;
18804;SDS011;9530;48.930;9.526;2022-08-27T01:54:31;18.67;;;14.37;;
18804;SDS011;9530;48.930;9.526;2022-08-27T01:56:58;19.03;;;14.60;;
18804;SDS011;9530;48.930;9.526;2022-08-27T01:59:26;20.00;;;15.30;;
18804;SDS011;9530;48.930;9.526;2022-08-27T02:01:54;20.67;;;14.63;;
18804;SDS011;9530;48.930;9.526;2022-08-27T02:04:22;20.87;;;16.37;;
18804;SDS011;9530;48.930;9.526;2022-08-27T02:06:49;19.30;;;16.50;;
18804;SDS011;9530;48.930;9.526;2022-08-27T02:09:15;22.83;;;16.53;;
18804;SDS011;9530;48.930;9.526;2022-08-27T02:11:42;18.40;;;15.20;;
18804;SDS011;9530;48.930;9.526;2022-08-27T02:14:09;22.23;;;17.53;;
18804;SDS011;9530;48.930;9.526;2022-08-27T02:16:37;21.93;;;17.13;;
18804;SDS011;9530;48.930;9.526;2022-08-27T02:19:04;23.23;;;18.17;;
18804;SDS011;9530;48.930;9.526;2022-08-27T02:21:31;24.27;;;19.20;;
18804;SDS011;9530;48.930;9.526;2022-08-27T02:23:58;25.80;;;19.47;;
18804;SDS011;9530;48.930;9.526;2022-08-27T02:26:24;25.17;;;18.80;;
18804;SDS011;9530;48.930;9.526;2022-08-27T02:28:52;25.43;;;19.57;;
18804;SDS011;9530;48.930;9.526;2022-08-27T02:31:18;25.00;;;19.63;;
18804;SDS011;9530;48.930;9.526;2022-08-27T02:33:47;22.73;;;19.17;;
18804;SDS011;9530;48.930;9.526;2022-08-27T02:36:14;24.70;;;20.40;;
18804;SDS011;9530;48.930;9.526;2022-08-27T02:38:41;23.70;;;20.40;;
18804;SDS011;9530;48.930;9.526;2022-08-27T02:41:08;25.97;;;20.57;;
18804;SDS011;9530;48.930;9.526;2022-08-27T02:43:35;25.17;;;19.70;;
18804;SDS011;9530;48.930;9.526;2022-08-27T02:46:02;27.03;;;20.23;;
18804;SDS011;9530;48.930;9.526;2022-08-27T02:48:29;27.60;;;21.40;;
18804;SDS011;9530;48.930;9.526;2022-08-27T02:50:57;27.40;;;21.77;;
18804;SDS011;9530;48.930;9.526;2022-08-27T02:53:23;22.97;;;20.47;;
18804;SDS011;9530;48.930;9.526;2022-08-27T02:55:51;24.90;;;21.33;;
18804;SDS011;9530;48.930;9.526;2022-08-27T02:58:17;25.17;;;20.00;;
18804;SDS011;9530;48.930;9.526;2022-08-27T03:00:44;28.70;;;21.37;;
18804;SDS011;9530;48.930;9.526;2022-08-27T03:03:11;26.80;;;20.30;;
18804;SDS011;9530;48.930;9.526;2022-08-27T03:05:38;25.07;;;19.60;;
18804;SDS011;9530;48.930;9.526;2022-08-27T03:08:06;29.23;;;22.20;;
18804;SDS011;9530;48.930;9.526;2022-08-27T03:10:33;29.33;;;22.63;;
18804;SDS011;9530;48.930;9.526;2022-08-27T03:13:00;32.77;;;24.67;;
18804;SDS011;9530;48.930;9.526;2022-08-27T03:15:27;30.77;;;25.27;;
18804;SDS011;9530;48.930;9.526;2022-08-27T03:17:54;30.00;;;23.83;;
18804;SDS011;9530;48.930;9.526;2022-08-27T03:20:38;32.27;;;26.43;;
18804;SDS011;9530;48.930;9.526;2022-08-27T03:23:07;32.60;;;25.57;;
18804;SDS011;9530;48.930;9.526;2022-08-27T03:25:34;32.60;;;24.50;;
18804;SDS011;9530;48.930;9.526;2022-08-27T03:28:02;35.13;;;26.57;;
18804;SDS011;9530;48.930;9.526;2022-08-27T03:30:30;34.13;;;25.37;;
18804;SDS011;9530;48.930;9.526;2022-08-27T03:32:56;29.33;;;25.33;;
18804;SDS011;9530;48.930;9.526;2022-08-27T03:35:23;33.17;;;25.50;;
18804;SDS011;9530;48.930;9.526;2022-08-27T03:37:50;37.43;;;25.80;;
18804;SDS011;9530;48.930;9.526;2022-08-27T03:40:18;30.80;;;23.73;;
18804;SDS011;9530;48.930;9.526;2022-08-27T03:42:45;31.77;;;25.23;;
18804;SDS011;9530;48.930;9.526;2022-08-27T03:45:12;32.77;;;23.20;;
18804;SDS011;9530;48.930;9.526;2022-08-27T03:47:39;29.83;;;22.20;;
18804;SDS011;9530;48.930;9.526;2022-08-27T03:50:06;29.90;;;21.23;;
18804;SDS011;9530;48.930;9.526;2022-08-27T03:52:34;27.33;;;22.10;;
18804;SDS011;9530;48.930;9.526;2022-08-27T03:55:01;29.17;;;24.10;;
18804;SDS011;9530;48.930;9.526;2022-08-27T03:57:30;32.27;;;25.40;;
18804;SDS011;9530;48.930;9.526;2022-08-27T03:59:57;30.30;;;26.70;;
18804;SDS011;9530;48.930;9.526;2022-08-27T04:02:24;30.73;;;25.47;;
18804;SDS011;9530;48.930;9.526;2022-08-27T04:04:51;29.67;;;26.40;;
18804;SDS011;9530;48.930;9.526;2022-08-27T04:07:18;31.67;;;27.43;;
18804;SDS011;9530;48.930;9.526;2022-08-27T04:09:45;33.37;;;26.70;;
18804;SDS011;9530;48.930;9.526;2022-08-27T04:12:12;31.90;;;27.57;;
18804;SDS011;9530;48.930;9.526;2022-08-27T04:14:40;31.37;;;26.80;;
18804;SDS011;9530;48.930;9.526;2022-08-27T04:17:06;33.10;;;26.90;;
18804;SDS011;9530;48.930;9.526;2022-08-27T04:19:33;33.90;;;28.20;;
18804;SDS011;9530;48.930;9.526;2022-08-27T04:22:01;33.73;;;27.17;;
18804;SDS011;9530;48.930;9.526;2022-08-27T04:24:30;31.07;;;27.20;;
18804;SDS011;9530;48.930;9.526;2022-08-27T04:26:58;34.50;;;29.57;;
18804;SDS011;9530;48.930;9.526;2022-08-27T04:29:25;31.57;;;27.70;;
18804;SDS011;9530;48.930;9.526;2022-08-27T04:31:53;33.97;;;28.83;;
18804;SDS011;9530;48.930;9.526;2022-08-27T04:34:20;33.00;;;27.40;;
18804;SDS011;9530;48.930;9.526;2022-08-27T04:36:47;39.03;;;29.30;;
18804;SDS011;9530;48.930;9.526;2022-08-27T04:39:14;34.33;;;28.80;;
18804;SDS011;9530;48.930;9.526;2022-08-27T04:41:41;32.80;;;28.37;;
18804;SDS011;9530;48.930;9.526;2022-08-27T04:44:08;33.97;;;29.23;;
18804;SDS011;9530;48.930;9.526;2022-08-27T04:46:37;37.07;;;28.90;;
18804;SDS011;9530;48.930;9.526;2022-08-27T04:49:07;35.17;;;29.37;;
18804;SDS011;9530;48.930;9.526;2022-08-27T04:51:36;38.70;;;30.27;;
18804;SDS011;9530;48.930;9.526;2022-08-27T04:54:03;32.70;;;28.23;;
18804;SDS011;9530;48.930;9.526;2022-08-27T04:56:31;40.97;;;30.00;;
18804;SDS011;9530;48.930;9.526;2022-08-27T04:59:00;38.33;;;28.53;;
18804;SDS011;9530;48.930;9.526;2022-08-27T05:01:27;33.77;;;27.53;;
18804;SDS011;9530;48.930;9.526;2022-08-27T05:03:55;36.17;;;27.17;;
18804;SDS011;9530;48.930;9.526;2022-08-27T05:06:25;36.53;;;28.17;;
18804;SDS011;9530;48.930;9.526;2022-08-27T05:08:52;33.97;;;27.20;;
18804;SDS011;9530;48.930;9.526;2022-08-27T05:11:20;29.57;;;26.23;;
18804;SDS011;9530;48.930;9.526;2022-08-27T05:13:48;32.53;;;26.87;;
18804;SDS011;9530;48.930;9.526;2022-08-27T05:16:16;31.33;;;25.17;;
18804;SDS011;9530;48.930;9.526;2022-08-27T05:18:45;29.97;;;25.30;;
18804;SDS011;9530;48.930;9.526;2022-08-27T05:21:15;32.90;;;26.17;;
18804;SDS011;9530;48.930;9.526;2022-08-27T05:23:45;34.00;;;27.10;;
18804;SDS011;9530;48.930;9.526;2022-08-27T05:26:12;36.33;;;27.27;;
18804;SDS011;9530;48.930;9.526;2022-08-27T05:28:39;37.77;;;28.37;;
18804;SDS011;9530;48.930;9.526;2022-08-27T05:31:06;30.97;;;26.03;;
18804;SDS011;9530;48.930;9.526;2022-08-27T05:33:35;29.73;;;25.53;;
18804;SDS011;9530;48.930;9.526;2022-08-27T05:36:03;34.30;;;26.13;;
18804;SDS011;9530;48.930;9.526;2022-08-27T05:38:30;30.07;;;26.33;;
18804;SDS011;9530;48.930;9.526;2022-08-27T05:41:02;31.03;;;25.97;;
18804;SDS011;9530;48.930;9.526;2022-08-27T05:43:31;38.43;;;28.20;;
18804;SDS011;9530;48.930;9.526;2022-08-27T05:45:58;34.33;;;26.30;;
18804;SDS011;9530;48.930;9.526;2022-08-27T05:48:29;34.47;;;28.23;;
18804;SDS011;9530;48.930;9.526;2022-08-27T05:50:56;38.20;;;28.37;;
18804;SDS011;9530;48.930;9.526;2022-08-27T05:53:22;36.63;;;26.83;;
18804;SDS011;9530;48.930;9.526;2022-08-27T05:55:49;31.90;;;26.77;;
18804;SDS011;9530;48.930;9.526;2022-08-27T05:58:17;35.70;;;26.57;;
18804;SDS011;9530;48.930;9.526;2022-08-27T06:00:58;30.60;;;25.93;;
18804;SDS011;9530;48.930;9.526;2022-08-27T06:03:31;36.13;;;27.43;;
18804;SDS011;9530;48.930;9.526;2022-08-27T06:06:00;35.93;;;28.63;;
18804;SDS011;9530;48.930;9.526;2022-08-27T06:08:28;32.40;;;26.87;;
18804;SDS011;9530;48.930;9.526;2022-08-27T06:10:55;35.77;;;27.17;;
18804;SDS011;9530;48.930;9.526;2022-08-27T06:13:27;35.73;;;27.60;;
18804;SDS011;9530;48.930;9.526;2022-08-27T06:15:59;31.43;;;27.03;;
18804;SDS011;9530;48.930;9.526;2022-08-27T06:18:26;33.67;;;27.63;;
18804;SDS011;9530;48.930;9.526;2022-08-27T06:20:53;38.07;;;27.93;;
18804;SDS011;9530;48.930;9.526;2022-08-27T06:23:19;35.80;;;27.30;;
18804;SDS011;9530;48.930;9.526;2022-08-27T06:25:46;30.60;;;25.37;;
18804;SDS011;9530;48.930;9.526;2022-08-27T06:28:13;30.17;;;26.40;;
18804;SDS011;9530;48.930;9.526;2022-08-27T06:30:41;33.00;;;26.47;;
18804;SDS011;9530;48.930;9.526;2022-08-27T06:33:08;31.20;;;26.77;;
18804;SDS011;9530;48.930;9.526;2022-08-27T06:35:34;33.70;;;27.00;;
18804;SDS011;9530;48.930;9.526;2022-08-27T06:38:01;35.10;;;27.17;;
18804;SDS011;9530;48.930;9.526;2022-08-27T06:40:28;34.67;;;25.90;;
18804;SDS011;9530;48.930;9.526;2022-08-27T06:42:55;33.47;;;26.47;;
18804;SDS011;9530;48.930;9.526;2022-08-27T06:45:22;34.13;;;28.23;;
18804;SDS011;9530;48.930;9.526;2022-08-27T06:47:50;34.47;;;27.63;;
18804;SDS011;9530;48.930;9.526;2022-08-27T06:50:17;33.60;;;26.07;;
18804;SDS011;9530;48.930;9.526;2022-08-27T06:52:44;33.47;;;27.23;;
18804;SDS011;9530;48.930;9.526;2022-08-27T06:55:11;37.43;;;28.10;;
18804;SDS011;9530;48.930;9.526;2022-08-27T06:57:38;34.37;;;27.83;;
18804;SDS011;9530;48.930;9.526;2022-08-27T07:00:05;35.57;;;28.37;;
18804;SDS011;9530;48.930;9.526;2022-08-27T07:02:33;33.07;;;27.10;;
18804;SDS011;9530;48.930;9.526;2022-08-27T07:05:01;36.33;;;28.53;;
18804;SDS011;9530;48.930;9.526;2022-08-27T07:07:28;36.73;;;28.43;;
18804;SDS011;9530;48.930;9.526;2022-08-27T07:09:55;32.93;;;27.30;;
18804;SDS011;9530;48.930;9.526;2022-08-27T07:12:21;35.07;;;28.33;;
18804;SDS011;9530;48.930;9.526;2022-08-27T07:14:49;33.63;;;28.80;;
18804;SDS011;9530;48.930;9.526;2022-08-27T07:17:16;34.83;;;29.37;;
18804;SDS011;9530;48.930;9.526;2022-08-27T07:19:43;36.53;;;29.03;;
18804;SDS011;9530;48.930;9.526;2022-08-27T07:22:12;34.23;;;28.10;;
18804;SDS011;9530;48.930;9.526;2022-08-27T07:24:38;31.37;;;27.33;;
18804;SDS011;9530;48.930;9.526;2022-08-27T07:27:05;33.97;;;27.67;;
18804;SDS011;9530;48.930;9.526;2022-08-27T07:29:32;35.47;;;27.17;;
18804;SDS011;9530;48.930;9.526;2022-08-27T07:31:59;34.07;;;26.97;;
18804;SDS011;9530;48.930;9.526;2022-08-27T07:34:25;33.00;;;27.00;;
18804;SDS011;9530;48.930;9.526;2022-08-27T07:36:52;35.43;;;28.23;;
18804;SDS011;9530;48.930;9.526;2022-08-27T07:39:20;34.33;;;28.30;;
18804;SDS011;9530;48.930;9.526;2022-08-27T07:41:47;36.17;;;28.43;;
18804;SDS011;9530;48.930;9.526;2022-08-27T07:44:31;32.60;;;27.67;;
18804;SDS011;9530;48.930;9.526;2022-08-27T07:46:58;38.53;;;30.03;;
18804;SDS011;9530;48.930;9.526;2022-08-27T07:49:26;35.97;;;29.13;;
18804;SDS011;9530;48.930;9.526;2022-08-27T07:51:53;38.03;;;29.30;;
18804;SDS011;9530;48.930;9.526;2022-08-27T07:54:21;36.33;;;30.33;;
18804;SDS011;9530;48.930;9.526;2022-08-27T07:56:48;37.83;;;29.17;;
18804;SDS011;9530;48.930;9.526;2022-08-27T07:59:15;39.60;;;30.37;;
18804;SDS011;9530;48.930;9.526;2022-08-27T08:01:41;36.30;;;29.83;;
18804;SDS011;9530;48.930;9.526;2022-08-27T08:04:08;37.13;;;29.00;;
18804;SDS011;9530;48.930;9.526;2022-08-27T08:06:36;37.37;;;30.97;;
18804;SDS011;9530;48.930;9.526;2022-08-27T08:09:03;35.00;;;28.77;;
18804;SDS011;9530;48.930;9.526;2022-08-27T08:11:32;38.13;;;28.97;;
18804;SDS011;9530;48.930;9.526;2022-08-27T08:13:59;34.50;;;29.13;;
18804;SDS011;9530;48.930;9.526;2022-08-27T08:16:26;38.07;;;29.77;;
18804;SDS011;9530;48.930;9.526;2022-08-27T08:18:53;37.00;;;29.50;;
18804;SDS011;9530;48.930;9.526;2022-08-27T08:21:19;36.47;;;29.67;;
18804;SDS011;9530;48.930;9.526;2022-08-27T08:23:46;42.93;;;29.53;;
18804;SDS011;9530;48.930;9.526;2022-08-27T08:26:13;34.57;;;28.33;;
18804;SDS011;9530;48.930;9.526;2022-08-27T08:28:42;38.13;;;27.87;;
18804;SDS011;9530;48.930;9.526;2022-08-27T08:31:09;35.73;;;27.23;;
18804;SDS011;9530;48.930;9.526;2022-08-27T08:33:36;35.93;;;27.83;;
18804;SDS011;9530;48.930;9.526;2022-08-27T08:36:04;36.63;;;29.00;;
18804;SDS011;9530;48.930;9.526;2022-08-27T08:38:33;32.67;;;25.47;;
18804;SDS011;9530;48.930;9.526;2022-08-27T08:41:01;34.10;;;27.70;;
18804;SDS011;9530;48.930;9.526;2022-08-27T08:43:30;41.87;;;28.93;;
18804;SDS011;9530;48.930;9.526;2022-08-27T08:46:04;32.60;;;26.77;;
18804;SDS011;9530;48.930;9.526;2022-08-27T08:48:37;33.30;;;27.07;;
18804;SDS011;9530;48.930;9.526;2022-08-27T08:51:09;34.60;;;26.93;;
18804;SDS011;9530;48.930;9.526;2022-08-27T08:53:40;34.50;;;25.93;;
18804;SDS011;9530;48.930;9.526;2022-08-27T08:56:20;30.60;;;25.30;;
18804;SDS011;9530;48.930;9.526;2022-08-27T08:58:52;31.70;;;25.90;;
18804;SDS011;9530;48.930;9.526;2022-08-27T09:01:25;31.27;;;25.23;;
18804;SDS011;9530;48.930;9.526;2022-08-27T09:03:53;30.13;;;23.73;;
18804;SDS011;9530;48.930;9.526;2022-08-27T09:06:25;28.70;;;25.20;;
18804;SDS011;9530;48.930;9.526;2022-08-27T09:08:58;27.10;;;22.33;;
18804;SDS011;9530;48.930;9.526;2022-08-27T09:11:31;25.87;;;21.93;;
18804;SDS011;9530;48.930;9.526;2022-08-27T09:14:05;30.57;;;22.70;;
18804;SDS011;9530;48.930;9.526;2022-08-27T09:16:39;26.20;;;22.23;;
18804;SDS011;9530;48.930;9.526;2022-08-27T09:19:06;25.90;;;21.30;;
18804;SDS011;9530;48.930;9.526;2022-08-27T09:21:35;24.23;;;20.37;;
18804;SDS011;9530;48.930;9.526;2022-08-27T09:24:11;21.90;;;19.50;;
18804;SDS011;9530;48.930;9.526;2022-08-27T09:26:42;22.13;;;18.87;;
18804;SDS011;9530;48.930;9.526;2022-08-27T09:29:10;20.87;;;17.60;;
18804;SDS011;9530;48.930;9.526;2022-08-27T09:31:46;19.63;;;17.53;;
18804;SDS011;9530;48.930;9.526;2022-08-27T09:34:18;19.33;;;17.00;;
18804;SDS011;9530;48.930;9.526;2022-08-27T09:36:47;20.27;;;15.83;;
18804;SDS011;9530;48.930;9.526;2022-08-27T09:39:17;17.73;;;15.83;;
18804;SDS011;9530;48.930;9.526;2022-08-27T09:41:45;17.63;;;15.83;;
18804;SDS011;9530;48.930;9.526;2022-08-27T09:44:16;22.47;;;19.17;;
18804;SDS011;9530;48.930;9.526;2022-08-27T09:46:53;25.00;;;20.27;;
18804;SDS011;9530;48.930;9.526;2022-08-27T09:49:22;22.67;;;19.27;;
18804;SDS011;9530;48.930;9.526;2022-08-27T09:51:49;23.70;;;17.93;;
18804;SDS011;9530;48.930;9.526;2022-08-27T09:54:25;18.77;;;16.87;;
18804;SDS011;9530;48.930;9.526;2022-08-27T09:56:57;20.70;;;17.40;;
18804;SDS011;9530;48.930;9.526;2022-08-27T09:59:25;18.27;;;16.33;;
18804;SDS011;9530;48.930;9.526;2022-08-27T10:02:01;17.60;;;15.80;;
18804;SDS011;9530;48.930;9.526;2022-08-27T10:04:33;16.53;;;14.70;;
18804;SDS011;9530;48.930;9.526;2022-08-27T10:07:10;19.63;;;15.70;;
18804;SDS011;9530;48.930;9.526;2022-08-27T10:09:45;18.73;;;14.80;;
18804;SDS011;9530;48.930;9.526;2022-08-27T10:12:18;13.57;;;12.27;;
18804;SDS011;9530;48.930;9.526;2022-08-27T10:14:51;14.77;;;12.27;;
18804;SDS011;9530;48.930;9.526;2022-08-27T10:17:24;12.47;;;11.07;;
18804;SDS011;9530;48.930;9.526;2022-08-27T10:20:02;14.13;;;11.57;;
18804;SDS011;9530;48.930;9.526;2022-08-27T10:22:38;14.00;;;10.90;;
18804;SDS011;9530;48.930;9.526;2022-08-27T10:25:14;14.23;;;10.40;;
18804;SDS011;9530;48.930;9.526;2022-08-27T10:27:49;12.77;;;10.80;;
18804;SDS011;9530;48.930;9.526;2022-08-27T10:30:25;11.50;;;10.33;;
18804;SDS011;9530;48.930;9.526;2022-08-27T10:33:02;14.40;;;11.47;;
18804;SDS011;9530;48.930;9.526;2022-08-27T10:35:39;12.93;;;11.50;;
18804;SDS011;9530;48.930;9.526;2022-08-27T10:38:12;19.47;;;14.03;;
18804;SDS011;9530;48.930;9.526;2022-08-27T10:40:45;15.10;;;13.43;;
18804;SDS011;9530;48.930;9.526;2022-08-27T10:43:21;15.63;;;13.30;;
18804;SDS011;9530;48.930;9.526;2022-08-27T10:46:05;15.03;;;12.53;;
18804;SDS011;9530;48.930;9.526;2022-08-27T10:48:48;14.10;;;12.70;;
18804;SDS011;9530;48.930;9.526;2022-08-27T10:51:22;14.27;;;12.00;;
18804;SDS011;9530;48.930;9.526;2022-08-27T10:53:57;14.77;;;12.03;;
18804;SDS011;9530;48.930;9.526;2022-08-27T10:56:30;14.00;;;11.70;;
18804;SDS011;9530;48.930;9.526;2022-08-27T10:59:02;11.93;;;10.73;;
18804;SDS011;9530;48.930;9.526;2022-08-27T11:01:39;15.63;;;11.17;;
18804;SDS011;9530;48.930;9.526;2022-08-27T11:04:14;13.33;;;11.07;;
18804;SDS011;9530;48.930;9.526;2022-08-27T11:06:49;12.60;;;11.30;;
18804;SDS011;9530;48.930;9.526;2022-08-27T11:09:32;14.47;;;11.67;;
18804;SDS011;9530;48.930;9.526;2022-08-27T11:12:02;14.23;;;11.07;;
18804;SDS011;9530;48.930;9.526;2022-08-27T11:14:34;14.73;;;11.77;;
18804;SDS011;9530;48.930;9.526;2022-08-27T11:17:07;14.87;;;11.50;;
18804;SDS011;9530;48.930;9.526;2022-08-27T11:19:40;14.93;;;13.07;;
18804;SDS011;9530;48.930;9.526;2022-08-27T11:22:14;15.70;;;12.73;;
18804;SDS011;9530;48.930;9.526;2022-08-27T11:24:46;16.93;;;12.47;;
18804;SDS011;9530;48.930;9.526;2022-08-27T11:27:21;15.33;;;12.97;;
18804;SDS011;9530;48.930;9.526;2022-08-27T11:29:52;18.17;;;13.57;;
18804;SDS011;9530;48.930;9.526;2022-08-27T11:32:25;18.07;;;13.50;;
18804;SDS011;9530;48.930;9.526;2022-08-27T11:34:58;18.67;;;14.80;;
18804;SDS011;9530;48.930;9.526;2022-08-27T11:37:32;18.70;;;14.17;;
18804;SDS011;9530;48.930;9.526;2022-08-27T11:40:16;16.77;;;14.97;;
18804;SDS011;9530;48.930;9.526;2022-08-27T11:42:53;20.40;;;15.83;;
18804;SDS011;9530;48.930;9.526;2022-08-27T11:45:24;17.00;;;15.23;;
18804;SDS011;9530;48.930;9.526;2022-08-27T11:47:59;17.77;;;15.70;;
18804;SDS011;9530;48.930;9.526;2022-08-27T11:50:29;20.63;;;15.83;;
18804;SDS011;9530;48.930;9.526;2022-08-27T11:52:58;19.10;;;15.77;;
18804;SDS011;9530;48.930;9.526;2022-08-27T11:55:28;18.40;;;16.23;;
18804;SDS011;9530;48.930;9.526;2022-08-27T11:58:05;24.27;;;17.33;;
18804;SDS011;9530;48.930;9.526;2022-08-27T12:00:35;19.93;;;17.93;;
18804;SDS011;9530;48.930;9.526;2022-08-27T12:03:05;26.67;;;18.57;;
18804;SDS011;9530;48.930;9.526;2022-08-27T12:05:37;21.37;;;18.13;;
18804;SDS011;9530;48.930;9.526;2022-08-27T12:08:13;24.00;;;19.40;;
18804;SDS011;9530;48.930;9.526;2022-08-27T12:10:47;21.93;;;19.40;;
18804;SDS011;9530;48.930;9.526;2022-08-27T12:13:22;24.87;;;19.03;;
18804;SDS011;9530;48.930;9.526;2022-08-27T12:15:58;22.67;;;20.23;;
18804;SDS011;9530;48.930;9.526;2022-08-27T12:18:39;23.03;;;20.40;;
18804;SDS011;9530;48.930;9.526;2022-08-27T12:21:15;27.33;;;20.60;;
18804;SDS011;9530;48.930;9.526;2022-08-27T12:23:55;23.17;;;20.67;;
18804;SDS011;9530;48.930;9.526;2022-08-27T12:26:36;22.30;;;19.60;;
18804;SDS011;9530;48.930;9.526;2022-08-27T12:29:19;21.87;;;18.67;;
18804;SDS011;9530;48.930;9.526;2022-08-27T12:31:50;29.63;;;18.43;;
18804;SDS011;9530;48.930;9.526;2022-08-27T12:34:21;21.00;;;10.50;;
18804;SDS011;9530;48.930;9.526;2022-08-27T12:36:52;11.33;;;7.20;;
18804;SDS011;9530;48.930;9.526;2022-08-27T12:39:22;16.27;;;6.50;;
18804;SDS011;9530;48.930;9.526;2022-08-27T12:41:52;6.53;;;4.50;;
18804;SDS011;9530;48.930;9.526;2022-08-27T12:44:22;6.30;;;4.13;;
18804;SDS011;9530;48.930;9.526;2022-08-27T12:46:51;11.63;;;3.83;;
18804;SDS011;9530;48.930;9.526;2022-08-27T12:49:23;5.27;;;3.63;;
18804;SDS011;9530;48.930;9.526;2022-08-27T12:51:54;8.60;;;4.07;;
18804;SDS011;9530;48.930;9.526;2022-08-27T12:54:26;4.37;;;3.70;;
18804;SDS011;9530;48.930;9.526;2022-08-27T12:57:05;5.73;;;4.00;;
18804;SDS011;9530;48.930;9.526;2022-08-27T12:59:46;8.17;;;4.40;;
18804;SDS011;9530;48.930;9.526;2022-08-27T13:02:26;7.07;;;4.50;;
18804;SDS011;9530;48.930;9.526;2022-08-27T13:05:08;6.07;;;4.67;;
18804;SDS011;9530;48.930;9.526;2022-08-27T13:07:40;6.57;;;4.97;;
18804;SDS011;9530;48.930;9.526;2022-08-27T13:10:11;7.10;;;5.03;;
18804;SDS011;9530;48.930;9.526;2022-08-27T13:12:40;6.13;;;5.40;;
18804;SDS011;9530;48.930;9.526;2022-08-27T13:15:07;9.33;;;4.57;;
18804;SDS011;9530;48.930;9.526;2022-08-27T13:17:37;7.63;;;5.20;;
18804;SDS011;9530;48.930;9.526;2022-08-27T13:20:11;7.43;;;5.33;;
18804;SDS011;9530;48.930;9.526;2022-08-27T13:22:42;8.40;;;5.53;;
18804;SDS011;9530;48.930;9.526;2022-08-27T13:25:19;9.53;;;5.07;;
18804;SDS011;9530;48.930;9.526;2022-08-27T13:27:52;6.53;;;4.87;;
18804;SDS011;9530;48.930;9.526;2022-08-27T13:30:23;10.50;;;7.20;;
18804;SDS011;9530;48.930;9.526;2022-08-27T13:32:51;8.73;;;7.17;;
18804;SDS011;9530;48.930;9.526;2022-08-27T13:35:18;11.47;;;7.73;;
18804;SDS011;9530;48.930;9.526;2022-08-27T13:37:48;10.10;;;8.03;;
18804;SDS011;9530;48.930;9.526;2022-08-27T13:40:24;9.43;;;7.53;;
18804;SDS011;9530;48.930;9.526;2022-08-27T13:42:55;9.20;;;7.23;;
18804;SDS011;9530;48.930;9.526;2022-08-27T13:45:23;9.60;;;7.03;;
18804;SDS011;9530;48.930;9.526;2022-08-27T13:47:51;9.37;;;7.57;;
18804;SDS011;9530;48.930;9.526;2022-08-27T13:50:20;9.83;;;7.47;;
18804;SDS011;9530;48.930;9.526;2022-08-27T13:52:50;9.37;;;7.30;;
18804;SDS011;9530;48.930;9.526;2022-08-27T13:55:36;8.23;;;6.63;;
18804;SDS011;9530;48.930;9.526;2022-08-27T13:58:12;7.60;;;6.47;;
18804;SDS011;9530;48.930;9.526;2022-08-27T14:00:40;8.53;;;6.20;;
18804;SDS011;9530;48.930;9.526;2022-08-27T14:03:21;7.37;;;6.20;;
18804;SDS011;9530;48.930;9.526;2022-08-27T14:05:56;7.57;;;6.27;;
18804;SDS011;9530;48.930;9.526;2022-08-27T14:08:28;8.37;;;6.30;;
18804;SDS011;9530;48.930;9.526;2022-08-27T14:10:57;10.90;;;6.07;;
18804;SDS011;9530;48.930;9.526;2022-08-27T14:13:26;6.17;;;5.50;;
18804;SDS011;9530;48.930;9.526;2022-08-27T14:15:55;6.43;;;5.10;;
18804;SDS011;9530;48.930;9.526;2022-08-27T14:18:25;8.40;;;5.70;;
18804;SDS011;9530;48.930;9.526;2022-08-27T14:20:54;6.90;;;5.40;;
18804;SDS011;9530;48.930;9.526;2022-08-27T14:23:21;6.07;;;5.20;;
18804;SDS011;9530;48.930;9.526;2022-08-27T14:25:50;8.57;;;5.57;;
18804;SDS011;9530;48.930;9.526;2022-08-27T14:28:17;8.63;;;5.50;;
18804;SDS011;9530;48.930;9.526;2022-08-27T14:30:45;6.10;;;5.50;;
18804;SDS011;9530;48.930;9.526;2022-08-27T14:33:12;8.03;;;5.33;;
18804;SDS011;9530;48.930;9.526;2022-08-27T14:35:40;6.17;;;5.33;;
18804;SDS011;9530;48.930;9.526;2022-08-27T14:38:09;6.83;;;5.87;;
18804;SDS011;9530;48.930;9.526;2022-08-27T14:40:39;7.57;;;5.60;;
18804;SDS011;9530;48.930;9.526;2022-08-27T14:43:07;8.40;;;5.23;;
18804;SDS011;9530;48.930;9.526;2022-08-27T14:45:35;6.97;;;5.57;;
18804;SDS011;9530;48.930;9.526;2022-08-27T14:48:03;8.90;;;6.30;;
18804;SDS011;9530;48.930;9.526;2022-08-27T14:50:31;8.77;;;6.43;;
18804;SDS011;9530;48.930;9.526;2022-08-27T14:52:57;7.90;;;6.17;;